sensor_id;sensor_type;location;lat;lon;timestamp;pressure;altitude;pressure_sealevel;temperature;humidity
84888;BME280;75150;54.494;18.518;2024-03-07T00:00:27;101885.69;;;-0.61;80.37
84888;BME280;75150;54.494;18.518;2024-03-07T00:02:50;101876.22;;;-0.67;80.44
84888;BME280;75150;54.494;18.518;2024-03-07T00:04:52;101874.44;;;-0.63;81.00
84888;BME280;75150;54.494;18.518;2024-03-07T00:06:53;101875.28;;;-0.63;80.36
84888;BME280;75150;54.494;18.518;2024-03-07T00:08:55;101874.44;;;-0.63;80.58
84888;BME280;75150;54.494;18.518;2024-03-07T00:10:56;101877.97;;;-0.69;80.19
84888;BME280;75150;54.494;18.518;2024-03-07T00:12:58;101871.03;;;-0.73;80.15
84888;BME280;75150;54.494;18.518;2024-03-07T00:14:59;101869.41;;;-0.80;80.07
84888;BME280;75150;54.494;18.518;2024-03-07T00:17:02;101865.97;;;-0.86;80.39
84888;BME280;75150;54.494;18.518;2024-03-07T00:19:04;101872.94;;;-0.90;80.59
84888;BME280;75150;54.494;18.518;2024-03-07T00:21:06;101867.78;;;-0.98;80.32
84888;BME280;75150;54.494;18.518;2024-03-07T00:23:08;101876.50;;;-1.02;80.75
84888;BME280;75150;54.494;18.518;2024-03-07T00:25:09;101879.97;;;-1.01;80.78
84888;BME280;75150;54.494;18.518;2024-03-07T00:27:11;101877.44;;;-1.07;80.67
84888;BME280;75150;54.494;18.518;2024-03-07T00:29:12;101876.53;;;-1.03;80.64
84888;BME280;75150;54.494;18.518;2024-03-07T00:31:14;101877.41;;;-1.06;80.74
84888;BME280;75150;54.494;18.518;2024-03-07T00:33:17;101873.97;;;-1.08;80.95
84888;BME280;75150;54.494;18.518;2024-03-07T00:35:19;101872.22;;;-1.10;81.15
84888;BME280;75150;54.494;18.518;2024-03-07T00:37:20;101877.47;;;-1.13;80.77
84888;BME280;75150;54.494;18.518;2024-03-07T00:39:22;101872.31;;;-1.18;80.69
84888;BME280;75150;54.494;18.518;2024-03-07T00:41:23;101874.94;;;-1.23;80.90
84888;BME280;75150;54.494;18.518;2024-03-07T00:43:25;101873.22;;;-1.27;80.80
84888;BME280;75150;54.494;18.518;2024-03-07T00:45:26;101870.69;;;-1.33;81.00
84888;BME280;75150;54.494;18.518;2024-03-07T00:47:28;101868.13;;;-1.39;81.00
84888;BME280;75150;54.494;18.518;2024-03-07T00:49:30;101870.72;;;-1.40;81.06
84888;BME280;75150;54.494;18.518;2024-03-07T00:51:32;101868.16;;;-1.47;81.03
84888;BME280;75150;54.494;18.518;2024-03-07T00:53:34;101871.63;;;-1.48;81.20
84888;BME280;75150;54.494;18.518;2024-03-07T00:55:35;101876.81;;;-1.48;81.33
84888;BME280;75150;54.494;18.518;2024-03-07T00:57:36;101866.44;;;-1.49;81.38
84888;BME280;75150;54.494;18.518;2024-03-07T00:59:38;101869.06;;;-1.52;81.36
84888;BME280;75150;54.494;18.518;2024-03-07T01:01:39;101863.03;;;-1.60;81.40
84888;BME280;75150;54.494;18.518;2024-03-07T01:03:41;101869.97;;;-1.61;81.08
84888;BME280;75150;54.494;18.518;2024-03-07T01:05:44;101869.13;;;-1.63;81.14
84888;BME280;75150;54.494;18.518;2024-03-07T01:07:46;101860.50;;;-1.71;81.60
84888;BME280;75150;54.494;18.518;2024-03-07T01:09:47;101866.56;;;-1.69;81.35
84888;BME280;75150;54.494;18.518;2024-03-07T01:11:49;101864.81;;;-1.65;81.42
84888;BME280;75150;54.494;18.518;2024-03-07T01:13:51;101871.75;;;-1.64;81.61
84888;BME280;75150;54.494;18.518;2024-03-07T01:15:52;101866.56;;;-1.66;81.83
84888;BME280;75150;54.494;18.518;2024-03-07T01:17:54;101858.78;;;-1.69;81.63
84888;BME280;75150;54.494;18.518;2024-03-07T01:19:56;101860.53;;;-1.69;81.63
84888;BME280;75150;54.494;18.518;2024-03-07T01:21:58;101856.19;;;-1.73;81.64
84888;BME280;75150;54.494;18.518;2024-03-07T01:24:00;101863.13;;;-1.69;82.03
84888;BME280;75150;54.494;18.518;2024-03-07T01:26:02;101866.56;;;-1.66;81.97
84888;BME280;75150;54.494;18.518;2024-03-07T01:28:04;101863.06;;;-1.65;82.32
84888;BME280;75150;54.494;18.518;2024-03-07T01:30:06;101861.34;;;-1.66;82.13
84888;BME280;75150;54.494;18.518;2024-03-07T01:32:08;101853.59;;;-1.69;81.93
84888;BME280;75150;54.494;18.518;2024-03-07T01:34:09;101860.53;;;-1.69;82.11
84888;BME280;75150;54.494;18.518;2024-03-07T01:36:11;101863.13;;;-1.69;82.07
84888;BME280;75150;54.494;18.518;2024-03-07T01:38:14;101863.09;;;-1.71;82.14
84888;BME280;75150;54.494;18.518;2024-03-07T01:40:16;101862.22;;;-1.71;82.13
84888;BME280;75150;54.494;18.518;2024-03-07T01:42:17;101861.38;;;-1.72;81.87
84888;BME280;75150;54.494;18.518;2024-03-07T01:44:19;101862.28;;;-1.76;82.17
84888;BME280;75150;54.494;18.518;2024-03-07T01:46:20;101865.75;;;-1.77;82.04
84888;BME280;75150;54.494;18.518;2024-03-07T01:48:26;101863.16;;;-1.80;82.00
84888;BME280;75150;54.494;18.518;2024-03-07T01:50:27;101858.84;;;-1.84;82.11
84888;BME280;75150;54.494;18.518;2024-03-07T01:52:30;101858.88;;;-1.87;82.27
84888;BME280;75150;54.494;18.518;2024-03-07T01:54:33;101861.47;;;-1.89;82.28
84888;BME280;75150;54.494;18.518;2024-03-07T01:56:36;101853.72;;;-1.93;82.37
84888;BME280;75150;54.494;18.518;2024-03-07T01:58:39;101855.41;;;-1.91;82.49
84888;BME280;75150;54.494;18.518;2024-03-07T02:00:41;101852.84;;;-1.92;82.68
84888;BME280;75150;54.494;18.518;2024-03-07T02:02:42;101856.28;;;-1.90;82.49
84888;BME280;75150;54.494;18.518;2024-03-07T02:04:44;101841.56;;;-1.96;82.21
84888;BME280;75150;54.494;18.518;2024-03-07T02:06:45;101857.16;;;-1.91;82.55
84888;BME280;75150;54.494;18.518;2024-03-07T02:08:47;101854.56;;;-1.93;82.37
84888;BME280;75150;54.494;18.518;2024-03-07T02:10:50;101864.94;;;-1.94;82.37
84888;BME280;75150;54.494;18.518;2024-03-07T02:12:52;101858.03;;;-1.98;82.53
84888;BME280;75150;54.494;18.518;2024-03-07T02:14:53;101849.41;;;-2.02;82.30
84888;BME280;75150;54.494;18.518;2024-03-07T02:16:55;101861.53;;;-2.01;82.64
84888;BME280;75150;54.494;18.518;2024-03-07T02:18:57;101850.28;;;-2.03;82.50
84888;BME280;75150;54.494;18.518;2024-03-07T02:21:00;101857.22;;;-2.05;82.38
84888;BME280;75150;54.494;18.518;2024-03-07T02:23:06;101846.84;;;-2.10;82.87
84888;BME280;75150;54.494;18.518;2024-03-07T02:25:08;101855.50;;;-2.12;82.42
84888;BME280;75150;54.494;18.518;2024-03-07T02:27:10;101851.22;;;-2.16;82.88
84888;BME280;75150;54.494;18.518;2024-03-07T02:29:11;101848.59;;;-2.21;82.76
84888;BME280;75150;54.494;18.518;2024-03-07T02:31:13;101858.16;;;-2.27;82.99
84888;BME280;75150;54.494;18.518;2024-03-07T02:33:15;101850.38;;;-2.27;82.80
84888;BME280;75150;54.494;18.518;2024-03-07T02:35:16;101845.19;;;-2.32;82.60
84888;BME280;75150;54.494;18.518;2024-03-07T02:37:19;101844.31;;;-2.32;82.83
84888;BME280;75150;54.494;18.518;2024-03-07T02:39:21;101846.06;;;-2.38;83.00
84888;BME280;75150;54.494;18.518;2024-03-07T02:41:23;101846.94;;;-2.39;82.98
84888;BME280;75150;54.494;18.518;2024-03-07T02:43:24;101846.97;;;-2.42;83.26
84888;BME280;75150;54.494;18.518;2024-03-07T02:45:26;101848.69;;;-2.41;82.98
84888;BME280;75150;54.494;18.518;2024-03-07T02:47:27;101847.81;;;-2.43;83.13
84888;BME280;75150;54.494;18.518;2024-03-07T02:49:29;101842.63;;;-2.46;82.94
84888;BME280;75150;54.494;18.518;2024-03-07T02:51:30;101843.50;;;-2.47;83.37
84888;BME280;75150;54.494;18.518;2024-03-07T02:53:33;101844.38;;;-2.51;83.40
84888;BME280;75150;54.494;18.518;2024-03-07T02:55:34;101848.72;;;-2.53;83.34
84888;BME280;75150;54.494;18.518;2024-03-07T02:57:36;101845.25;;;-2.55;83.61
84888;BME280;75150;54.494;18.518;2024-03-07T02:59:37;101846.97;;;-2.58;83.26
84888;BME280;75150;54.494;18.518;2024-03-07T03:01:39;101845.25;;;-2.59;83.41
84888;BME280;75150;54.494;18.518;2024-03-07T03:03:41;101842.69;;;-2.64;83.30
84888;BME280;75150;54.494;18.518;2024-03-07T03:05:42;101851.31;;;-2.62;83.45
84888;BME280;75150;54.494;18.518;2024-03-07T03:07:44;101849.59;;;-2.61;83.78
84888;BME280;75150;54.494;18.518;2024-03-07T03:09:48;101840.94;;;-2.63;83.79
84888;BME280;75150;54.494;18.518;2024-03-07T03:11:49;101853.91;;;-2.62;83.53
84888;BME280;75150;54.494;18.518;2024-03-07T03:13:51;101850.47;;;-2.61;83.71
84888;BME280;75150;54.494;18.518;2024-03-07T03:15:53;101847.00;;;-2.63;83.43
84888;BME280;75150;54.494;18.518;2024-03-07T03:17:54;101840.06;;;-2.61;83.74
84888;BME280;75150;54.494;18.518;2024-03-07T03:19:56;101845.28;;;-2.61;83.69
84888;BME280;75150;54.494;18.518;2024-03-07T03:21:57;101846.16;;;-2.63;83.74
84888;BME280;75150;54.494;18.518;2024-03-07T03:23:59;101840.09;;;-2.66;83.67
84888;BME280;75150;54.494;18.518;2024-03-07T03:26:02;101842.66;;;-2.61;83.69
84888;BME280;75150;54.494;18.518;2024-03-07T03:28:04;101840.94;;;-2.62;83.64
84888;BME280;75150;54.494;18.518;2024-03-07T03:30:07;101840.09;;;-2.64;83.67
84888;BME280;75150;54.494;18.518;2024-03-07T03:32:08;101846.16;;;-2.65;83.69
84888;BME280;75150;54.494;18.518;2024-03-07T03:34:10;101841.81;;;-2.64;83.71
84888;BME280;75150;54.494;18.518;2024-03-07T03:36:11;101849.59;;;-2.64;83.87
84888;BME280;75150;54.494;18.518;2024-03-07T03:38:13;101841.81;;;-2.64;83.82
84888;BME280;75150;54.494;18.518;2024-03-07T03:40:15;101846.16;;;-2.65;83.93
84888;BME280;75150;54.494;18.518;2024-03-07T03:42:18;101852.19;;;-2.63;83.95
84888;BME280;75150;54.494;18.518;2024-03-07T03:44:19;101848.72;;;-2.60;84.28
84888;BME280;75150;54.494;18.518;2024-03-07T03:46:22;101850.44;;;-2.59;83.79
84888;BME280;75150;54.494;18.518;2024-03-07T03:48:24;101847.84;;;-2.58;84.00
84888;BME280;75150;54.494;18.518;2024-03-07T03:50:26;101852.19;;;-2.58;84.01
84888;BME280;75150;54.494;18.518;2024-03-07T03:52:27;101847.00;;;-2.60;83.86
84888;BME280;75150;54.494;18.518;2024-03-07T03:54:29;101853.06;;;-2.61;84.01
84888;BME280;75150;54.494;18.518;2024-03-07T03:56:30;101849.59;;;-2.64;84.19
84888;BME280;75150;54.494;18.518;2024-03-07T03:58:33;101853.94;;;-2.65;84.31
84888;BME280;75150;54.494;18.518;2024-03-07T04:00:34;101862.59;;;-2.64;84.47
84888;BME280;75150;54.494;18.518;2024-03-07T04:02:36;101847.88;;;-2.62;84.24
84888;BME280;75150;54.494;18.518;2024-03-07T04:04:38;101853.06;;;-2.61;84.38
84888;BME280;75150;54.494;18.518;2024-03-07T04:06:40;101859.09;;;-2.60;84.47
84888;BME280;75150;54.494;18.518;2024-03-07T04:08:41;101853.91;;;-2.59;84.23
84888;BME280;75150;54.494;18.518;2024-03-07T04:10:43;101853.03;;;-2.59;84.17
84888;BME280;75150;54.494;18.518;2024-03-07T04:12:45;101852.16;;;-2.57;84.48
84888;BME280;75150;54.494;18.518;2024-03-07T04:14:48;101850.44;;;-2.55;84.25
84888;BME280;75150;54.494;18.518;2024-03-07T04:16:49;101851.31;;;-2.53;84.54
84888;BME280;75150;54.494;18.518;2024-03-07T04:18:51;101840.94;;;-2.53;84.26
84888;BME280;75150;54.494;18.518;2024-03-07T04:20:52;101848.72;;;-2.53;84.44
84888;BME280;75150;54.494;18.518;2024-03-07T04:22:54;101848.72;;;-2.50;84.34
84888;BME280;75150;54.494;18.518;2024-03-07T04:24:55;101851.31;;;-2.50;84.10
84888;BME280;75150;54.494;18.518;2024-03-07T04:26:57;101846.09;;;-2.50;83.93
84888;BME280;75150;54.494;18.518;2024-03-07T04:28:58;101850.44;;;-2.50;84.21
84888;BME280;75150;54.494;18.518;2024-03-07T04:31:02;101846.09;;;-2.50;84.43
84888;BME280;75150;54.494;18.518;2024-03-07T04:33:03;101851.31;;;-2.50;84.40
84888;BME280;75150;54.494;18.518;2024-03-07T04:35:06;101841.81;;;-2.54;84.19
84888;BME280;75150;54.494;18.518;2024-03-07T04:37:07;101847.84;;;-2.52;84.24
84888;BME280;75150;54.494;18.518;2024-03-07T04:39:09;101853.91;;;-2.56;84.06
84888;BME280;75150;54.494;18.518;2024-03-07T04:41:10;101849.59;;;-2.60;84.07
84888;BME280;75150;54.494;18.518;2024-03-07T04:43:12;101853.06;;;-2.61;84.33
84888;BME280;75150;54.494;18.518;2024-03-07T04:45:14;101850.47;;;-2.62;84.57
84888;BME280;75150;54.494;18.518;2024-03-07T04:47:18;101853.94;;;-2.65;84.51
84888;BME280;75150;54.494;18.518;2024-03-07T04:49:19;101848.75;;;-2.65;84.53
84888;BME280;75150;54.494;18.518;2024-03-07T04:51:21;101858.25;;;-2.69;84.57
84888;BME280;75150;54.494;18.518;2024-03-07T04:53:22;101853.03;;;-2.67;84.33
84888;BME280;75150;54.494;18.518;2024-03-07T04:55:24;101865.16;;;-2.69;84.66
84888;BME280;75150;54.494;18.518;2024-03-07T04:57:25;101853.91;;;-2.70;84.54
84888;BME280;75150;54.494;18.518;2024-03-07T04:59:27;101857.38;;;-2.69;84.24
84888;BME280;75150;54.494;18.518;2024-03-07T05:01:28;101872.06;;;-2.68;84.81
84888;BME280;75150;54.494;18.518;2024-03-07T05:03:31;101870.34;;;-2.68;84.87
84888;BME280;75150;54.494;18.518;2024-03-07T05:05:32;101871.22;;;-2.67;84.50
84888;BME280;75150;54.494;18.518;2024-03-07T05:07:34;101865.19;;;-2.64;84.64
84888;BME280;75150;54.494;18.518;2024-03-07T05:09:36;101862.59;;;-2.64;84.70
84888;BME280;75150;54.494;18.518;2024-03-07T05:11:37;101861.69;;;-2.60;85.04
84888;BME280;75150;54.494;18.518;2024-03-07T05:13:39;101863.44;;;-2.62;84.58
84888;BME280;75150;54.494;18.518;2024-03-07T05:15:40;101867.75;;;-2.61;84.65
84888;BME280;75150;54.494;18.518;2024-03-07T05:17:42;101863.41;;;-2.58;84.73
84888;BME280;75150;54.494;18.518;2024-03-07T05:19:45;101873.81;;;-2.59;84.71
84888;BME280;75150;54.494;18.518;2024-03-07T05:21:46;101869.47;;;-2.59;84.68
84888;BME280;75150;54.494;18.518;2024-03-07T05:23:48;101857.38;;;-2.60;84.86
84888;BME280;75150;54.494;18.518;2024-03-07T05:25:49;101863.41;;;-2.55;85.12
84888;BME280;75150;54.494;18.518;2024-03-07T05:27:51;101870.34;;;-2.52;84.69
84888;BME280;75150;54.494;18.518;2024-03-07T05:29:52;101868.63;;;-2.52;84.50
84888;BME280;75150;54.494;18.518;2024-03-07T05:31:54;101866.88;;;-2.50;84.90
84888;BME280;75150;54.494;18.518;2024-03-07T05:33:55;101872.06;;;-2.47;85.07
84888;BME280;75150;54.494;18.518;2024-03-07T05:35:58;101867.72;;;-2.46;84.81
84888;BME280;75150;54.494;18.518;2024-03-07T05:38:00;101860.78;;;-2.44;84.64
84888;BME280;75150;54.494;18.518;2024-03-07T05:40:02;101863.38;;;-2.43;84.91
84888;BME280;75150;54.494;18.518;2024-03-07T05:42:03;101861.66;;;-2.39;84.81
84888;BME280;75150;54.494;18.518;2024-03-07T05:44:05;101864.25;;;-2.36;84.87
84888;BME280;75150;54.494;18.518;2024-03-07T05:46:07;101859.91;;;-2.36;84.96
84888;BME280;75150;54.494;18.518;2024-03-07T05:48:14;101863.34;;;-2.32;85.07
84888;BME280;75150;54.494;18.518;2024-03-07T05:50:16;101869.41;;;-2.28;84.74
84888;BME280;75150;54.494;18.518;2024-03-07T05:52:19;101862.47;;;-2.25;84.66
84888;BME280;75150;54.494;18.518;2024-03-07T05:54:21;101865.91;;;-2.20;84.69
84888;BME280;75150;54.494;18.518;2024-03-07T05:56:22;101859.00;;;-2.15;84.70
84888;BME280;75150;54.494;18.518;2024-03-07T05:58:24;101865.88;;;-2.09;84.90
84888;BME280;75150;54.494;18.518;2024-03-07T06:00:25;101860.69;;;-2.04;84.98
84888;BME280;75150;54.494;18.518;2024-03-07T06:02:26;101861.50;;;-1.98;84.75
84888;BME280;75150;54.494;18.518;2024-03-07T06:04:28;101867.53;;;-1.90;84.67
84888;BME280;75150;54.494;18.518;2024-03-07T06:06:29;101868.34;;;-1.79;85.17
84888;BME280;75150;54.494;18.518;2024-03-07T06:08:33;101869.16;;;-1.67;84.97
84888;BME280;75150;54.494;18.518;2024-03-07T06:10:34;101873.41;;;-1.53;84.88
84888;BME280;75150;54.494;18.518;2024-03-07T06:12:36;101860.28;;;-1.36;84.60
84888;BME280;75150;54.494;18.518;2024-03-07T06:14:37;101866.25;;;-1.20;84.59
84888;BME280;75150;54.494;18.518;2024-03-07T06:16:40;101872.19;;;-1.04;84.75
84888;BME280;75150;54.494;18.518;2024-03-07T06:18:41;101866.03;;;-0.91;84.15
84888;BME280;75150;54.494;18.518;2024-03-07T06:20:43;101860.59;;;-0.68;84.64
84888;BME280;75150;54.494;18.518;2024-03-07T06:22:44;101862.94;;;-0.41;84.26
84888;BME280;75150;54.494;18.518;2024-03-07T06:24:48;101861.75;;;-0.14;84.02
84888;BME280;75150;54.494;18.518;2024-03-07T06:26:49;101860.59;;;0.10;83.37
84888;BME280;75150;54.494;18.518;2024-03-07T06:28:51;101863.78;;;0.32;83.52
84888;BME280;75150;54.494;18.518;2024-03-07T06:30:52;101867.09;;;0.43;82.91
84888;BME280;75150;54.494;18.518;2024-03-07T06:32:53;101865.22;;;0.54;83.16
84888;BME280;75150;54.494;18.518;2024-03-07T06:34:55;101872.06;;;0.62;82.59
84888;BME280;75150;54.494;18.518;2024-03-07T06:36:56;101871.03;;;0.72;82.79
84888;BME280;75150;54.494;18.518;2024-03-07T06:38:58;101867.91;;;1.04;82.90
84888;BME280;75150;54.494;18.518;2024-03-07T06:41:01;101867.56;;;1.25;82.88
84888;BME280;75150;54.494;18.518;2024-03-07T06:43:03;101860.50;;;1.30;82.54
84888;BME280;75150;54.494;18.518;2024-03-07T06:45:05;101869.09;;;1.37;82.39
84888;BME280;75150;54.494;18.518;2024-03-07T06:47:07;101865.47;;;1.45;82.42
84888;BME280;75150;54.494;18.518;2024-03-07T06:49:09;101863.59;;;1.52;82.71
84888;BME280;75150;54.494;18.518;2024-03-07T06:51:10;101867.50;;;1.76;82.62
84888;BME280;75150;54.494;18.518;2024-03-07T06:53:11;101868.88;;;1.94;82.41
84888;BME280;75150;54.494;18.518;2024-03-07T06:55:14;101863.00;;;2.24;82.42
84888;BME280;75150;54.494;18.518;2024-03-07T06:57:17;101865.06;;;2.50;82.06
84888;BME280;75150;54.494;18.518;2024-03-07T06:59:19;101869.84;;;2.70;81.40
84888;BME280;75150;54.494;18.518;2024-03-07T07:01:20;101864.06;;;2.93;81.61
84888;BME280;75150;54.494;18.518;2024-03-07T07:03:22;101863.38;;;3.55;80.95
84888;BME280;75150;54.494;18.518;2024-03-07T07:05:23;101860.22;;;4.63;80.34
84888;BME280;75150;54.494;18.518;2024-03-07T07:07:24;101857.53;;;5.94;71.42
84888;BME280;75150;54.494;18.518;2024-03-07T07:09:26;101855.53;;;6.89;75.23
84888;BME280;75150;54.494;18.518;2024-03-07T07:11:27;101854.56;;;7.54;74.07
84888;BME280;75150;54.494;18.518;2024-03-07T07:13:31;101851.91;;;8.14;67.86
84888;BME280;75150;54.494;18.518;2024-03-07T07:15:33;101847.78;;;8.27;69.59
84888;BME280;75150;54.494;18.518;2024-03-07T07:17:35;101849.56;;;9.00;71.86
84888;BME280;75150;54.494;18.518;2024-03-07T07:19:36;101846.06;;;9.85;69.81
84888;BME280;75150;54.494;18.518;2024-03-07T07:21:38;101844.97;;;10.53;64.17
84888;BME280;75150;54.494;18.518;2024-03-07T07:23:40;101849.50;;;10.83;67.77
84888;BME280;75150;54.494;18.518;2024-03-07T07:25:42;101846.31;;;11.52;67.67
84888;BME280;75150;54.494;18.518;2024-03-07T07:27:44;101845.88;;;12.17;65.94
84888;BME280;75150;54.494;18.518;2024-03-07T07:29:48;101854.94;;;12.41;62.10
84888;BME280;75150;54.494;18.518;2024-03-07T07:31:49;101856.41;;;12.59;63.12
84888;BME280;75150;54.494;18.518;2024-03-07T07:33:51;101852.16;;;13.11;64.00
84888;BME280;75150;54.494;18.518;2024-03-07T07:35:52;101855.63;;;13.26;61.89
84888;BME280;75150;54.494;18.518;2024-03-07T07:37:54;101855.44;;;13.41;52.24
84888;BME280;75150;54.494;18.518;2024-03-07T07:39:55;101858.28;;;13.26;59.41
84888;BME280;75150;54.494;18.518;2024-03-07T07:41:57;101850.78;;;13.58;54.39
84888;BME280;75150;54.494;18.518;2024-03-07T07:43:58;101852.72;;;13.94;59.04
84888;BME280;75150;54.494;18.518;2024-03-07T07:46:01;101850.88;;;13.94;51.89
84888;BME280;75150;54.494;18.518;2024-03-07T07:48:03;101853.34;;;13.85;58.68
84888;BME280;75150;54.494;18.518;2024-03-07T07:50:07;101858.53;;;14.12;56.85
84888;BME280;75150;54.494;18.518;2024-03-07T07:52:09;101850.00;;;14.69;57.98
84888;BME280;75150;54.494;18.518;2024-03-07T07:54:11;101859.59;;;14.95;53.78
84888;BME280;75150;54.494;18.518;2024-03-07T07:56:12;101854.00;;;14.74;55.75
84888;BME280;75150;54.494;18.518;2024-03-07T07:58:13;101857.16;;;14.92;51.34
84888;BME280;75150;54.494;18.518;2024-03-07T08:00:16;101856.50;;;14.02;51.89
84888;BME280;75150;54.494;18.518;2024-03-07T08:02:20;101857.91;;;13.95;47.74
84888;BME280;75150;54.494;18.518;2024-03-07T08:04:21;101862.19;;;13.98;53.24
84888;BME280;75150;54.494;18.518;2024-03-07T08:06:23;101856.50;;;14.64;53.49
84888;BME280;75150;54.494;18.518;2024-03-07T08:08:24;101860.00;;;15.13;47.15
84888;BME280;75150;54.494;18.518;2024-03-07T08:10:27;101855.72;;;14.99;48.14
84888;BME280;75150;54.494;18.518;2024-03-07T08:12:29;101864.66;;;14.37;48.65
84888;BME280;75150;54.494;18.518;2024-03-07T08:14:30;101862.69;;;14.03;49.59
84888;BME280;75150;54.494;18.518;2024-03-07T08:16:32;101870.66;;;13.39;48.30
84888;BME280;75150;54.494;18.518;2024-03-07T08:18:35;101871.44;;;12.87;49.53
84888;BME280;75150;54.494;18.518;2024-03-07T08:20:37;101865.44;;;12.57;47.69
84888;BME280;75150;54.494;18.518;2024-03-07T08:22:42;101869.47;;;13.31;50.60
84888;BME280;75150;54.494;18.518;2024-03-07T08:24:43;101860.03;;;14.03;48.96
84888;BME280;75150;54.494;18.518;2024-03-07T08:26:45;101863.53;;;14.65;49.53
84888;BME280;75150;54.494;18.518;2024-03-07T08:28:46;101863.66;;;15.12;46.52
84888;BME280;75150;54.494;18.518;2024-03-07T08:30:48;101870.75;;;15.00;44.82
84888;BME280;75150;54.494;18.518;2024-03-07T08:32:50;101872.75;;;15.09;39.40
84888;BME280;75150;54.494;18.518;2024-03-07T08:34:54;101873.97;;;15.40;46.59
84888;BME280;75150;54.494;18.518;2024-03-07T08:36:55;101863.75;;;15.34;39.09
84888;BME280;75150;54.494;18.518;2024-03-07T08:38:57;101872.81;;;14.97;43.84
84888;BME280;75150;54.494;18.518;2024-03-07T08:40:58;101876.13;;;14.63;46.02
84888;BME280;75150;54.494;18.518;2024-03-07T08:43:00;101872.25;;;14.80;44.57
84888;BME280;75150;54.494;18.518;2024-03-07T08:45:03;101873.03;;;15.17;46.02
84888;BME280;75150;54.494;18.518;2024-03-07T08:47:05;101872.81;;;15.20;43.05
84888;BME280;75150;54.494;18.518;2024-03-07T08:49:07;101872.25;;;15.04;42.88
84888;BME280;75150;54.494;18.518;2024-03-07T08:51:10;101869.84;;;14.64;44.47
84888;BME280;75150;54.494;18.518;2024-03-07T08:53:11;101864.50;;;14.64;45.49
84888;BME280;75150;54.494;18.518;2024-03-07T08:55:14;101869.22;;;15.44;43.38
84888;BME280;75150;54.494;18.518;2024-03-07T08:57:15;101874.34;;;16.27;45.11
84888;BME280;75150;54.494;18.518;2024-03-07T08:59:17;101862.91;;;16.36;44.04
84888;BME280;75150;54.494;18.518;2024-03-07T09:01:18;101862.78;;;15.93;42.05
84888;BME280;75150;54.494;18.518;2024-03-07T09:03:20;101857.56;;;15.80;40.62
84888;BME280;75150;54.494;18.518;2024-03-07T09:05:22;101867.13;;;15.36;43.33
84888;BME280;75150;54.494;18.518;2024-03-07T09:07:25;101867.25;;;15.70;41.92
84888;BME280;75150;54.494;18.518;2024-03-07T09:09:30;101859.41;;;16.02;41.49
84888;BME280;75150;54.494;18.518;2024-03-07T09:11:32;101865.19;;;15.38;38.81
84888;BME280;75150;54.494;18.518;2024-03-07T09:13:33;101872.69;;;14.74;42.41
84888;BME280;75150;54.494;18.518;2024-03-07T09:15:35;101861.69;;;14.55;42.23
84888;BME280;75150;54.494;18.518;2024-03-07T09:17:36;101866.16;;;14.29;42.92
84888;BME280;75150;54.494;18.518;2024-03-07T09:19:38;101869.00;;;14.88;42.86
84888;BME280;75150;54.494;18.518;2024-03-07T09:21:39;101859.53;;;15.43;42.25
84888;BME280;75150;54.494;18.518;2024-03-07T09:23:42;101854.66;;;15.94;40.54
84888;BME280;75150;54.494;18.518;2024-03-07T09:25:44;101869.22;;;15.44;36.63
84888;BME280;75150;54.494;18.518;2024-03-07T09:27:46;101860.50;;;15.42;41.54
84888;BME280;75150;54.494;18.518;2024-03-07T09:29:47;101865.84;;;14.83;40.71
84888;BME280;75150;54.494;18.518;2024-03-07T09:31:49;101871.00;;;14.24;40.24
84888;BME280;75150;54.494;18.518;2024-03-07T09:33:50;101876.72;;;14.43;37.47
84888;BME280;75150;54.494;18.518;2024-03-07T09:35:52;101876.06;;;14.40;41.05
84888;BME280;75150;54.494;18.518;2024-03-07T09:37:53;101868.16;;;13.76;40.98
84888;BME280;75150;54.494;18.518;2024-03-07T09:39:56;101875.66;;;13.31;40.09
84888;BME280;75150;54.494;18.518;2024-03-07T09:41:58;101886.09;;;12.80;42.45
84888;BME280;75150;54.494;18.518;2024-03-07T09:44:00;101873.50;;;13.24;42.92
84888;BME280;75150;54.494;18.518;2024-03-07T09:46:03;101875.69;;;13.57;42.39
84888;BME280;75150;54.494;18.518;2024-03-07T09:48:07;101870.81;;;13.89;41.86
84888;BME280;75150;54.494;18.518;2024-03-07T09:50:10;101869.19;;;14.12;39.75
84888;BME280;75150;54.494;18.518;2024-03-07T09:52:12;101878.47;;;13.68;39.46
84888;BME280;75150;54.494;18.518;2024-03-07T09:54:16;101874.31;;;13.76;42.27
84888;BME280;75150;54.494;18.518;2024-03-07T09:56:21;101874.44;;;14.00;37.61
84888;BME280;75150;54.494;18.518;2024-03-07T09:58:22;101869.97;;;13.88;41.08
84888;BME280;75150;54.494;18.518;2024-03-07T10:00:27;101870.06;;;14.61;41.89
84888;BME280;75150;54.494;18.518;2024-03-07T10:02:29;101869.75;;;15.25;41.59
84888;BME280;75150;54.494;18.518;2024-03-07T10:04:38;101881.84;;;14.46;39.04
84888;BME280;75150;54.494;18.518;2024-03-07T10:06:41;101876.28;;;14.36;41.39
84888;BME280;75150;54.494;18.518;2024-03-07T10:08:44;101868.66;;;14.19;41.25
84888;BME280;75150;54.494;18.518;2024-03-07T10:10:46;101874.22;;;13.91;41.57
84888;BME280;75150;54.494;18.518;2024-03-07T10:12:50;101865.03;;;13.57;41.10
84888;BME280;75150;54.494;18.518;2024-03-07T10:14:55;101875.78;;;13.42;40.60
84888;BME280;75150;54.494;18.518;2024-03-07T10:16:57;101870.16;;;13.98;42.28
84888;BME280;75150;54.494;18.518;2024-03-07T10:18:59;101875.28;;;14.63;42.10
84888;BME280;75150;54.494;18.518;2024-03-07T10:21:01;101872.47;;;14.15;39.77
84888;BME280;75150;54.494;18.518;2024-03-07T10:23:03;101871.66;;;13.89;36.65
84888;BME280;75150;54.494;18.518;2024-03-07T10:25:05;101873.91;;;14.08;41.16
84888;BME280;75150;54.494;18.518;2024-03-07T10:27:06;101864.69;;;14.25;40.47
84888;BME280;75150;54.494;18.518;2024-03-07T10:29:09;101871.63;;;14.15;37.96